createdAt,value
2018-03-29T00:02:28.001Z,73.90
2018-03-29T00:04:56.139Z,73.90
2018-03-29T00:07:25.044Z,73.00
2018-03-29T00:09:53.205Z,72.90
2018-03-29T00:12:22.739Z,73.30
2018-03-29T00:14:51.468Z,73.30
2018-03-29T00:17:19.617Z,73.20
2018-03-29T00:19:47.743Z,72.80
2018-03-29T00:22:15.936Z,72.80
2018-03-29T00:24:44.065Z,73.00
2018-03-29T00:27:12.984Z,73.50
2018-03-29T00:29:41.104Z,72.40
2018-03-29T00:32:09.267Z,72.30
2018-03-29T00:34:37.408Z,72.10
2018-03-29T00:37:05.551Z,72.00
2018-03-29T00:39:34.468Z,71.90
2018-03-29T00:42:02.592Z,72.00
2018-03-29T00:44:30.755Z,72.20
2018-03-29T00:46:58.877Z,72.50
2018-03-29T00:49:27.034Z,73.20
2018-03-29T00:51:55.926Z,73.80
2018-03-29T00:54:24.841Z,75.00
2018-03-29T00:56:53.099Z,73.80
2018-03-29T00:59:21.251Z,73.60
2018-03-29T01:01:49.395Z,73.00
2018-03-29T01:04:17.549Z,73.10
2018-03-29T01:06:45.932Z,73.90
2018-03-29T01:09:14.923Z,74.10
2018-03-29T01:11:43.062Z,74.10
2018-03-29T01:14:11.204Z,74.40
2018-03-29T01:16:39.339Z,75.90
2018-03-29T01:19:07.526Z,75.30
2018-03-29T01:21:35.652Z,75.30
2018-03-29T01:24:03.787Z,75.30
2018-03-29T01:26:31.904Z,75.30
2018-03-29T01:29:00.040Z,75.30
2018-03-29T01:31:28.169Z,75.30
2018-03-29T01:33:56.320Z,76.30
2018-03-29T01:36:24.447Z,76.60
2018-03-29T01:38:52.592Z,76.70
2018-03-29T01:41:20.732Z,77.50
2018-03-29T01:43:48.916Z,79.30
2018-03-29T01:46:17.076Z,79.50
2018-03-29T01:48:45.218Z,79.10
2018-03-29T01:51:13.354Z,78.30
2018-03-29T01:53:41.496Z,78.30
2018-03-29T01:56:09.640Z,78.10
2018-03-29T01:58:38.559Z,78.50
2018-03-29T02:01:06.703Z,78.50
2018-03-29T02:03:35.620Z,80.40
2018-03-29T02:06:03.745Z,80.40
2018-03-29T02:08:31.891Z,80.80
2018-03-29T02:11:00.011Z,80.90
2018-03-29T02:13:28.923Z,81.80
2018-03-29T02:15:57.051Z,81.80
2018-03-29T02:18:25.179Z,82.60
2018-03-29T02:20:53.324Z,83.00
2018-03-29T02:23:22.219Z,85.40
2018-03-29T02:25:51.128Z,86.10
2018-03-29T02:28:19.247Z,86.10
2018-03-29T02:30:47.389Z,86.10
2018-03-29T02:33:15.524Z,86.80
2018-03-29T02:35:44.466Z,85.10
2018-03-29T02:38:12.608Z,85.30
2018-03-29T02:40:40.739Z,85.20
2018-03-29T02:43:08.883Z,85.70
2018-03-29T02:45:37.091Z,86.40
2018-03-29T02:48:06.009Z,90.10
2018-03-29T02:50:34.127Z,90.10
2018-03-29T02:53:02.283Z,90.20
2018-03-29T02:55:30.440Z,90.30
2018-03-29T02:57:58.600Z,90.50
2018-03-29T03:00:26.767Z,90.60
2018-03-29T03:02:54.885Z,90.50
2018-03-29T03:05:23.015Z,90.70
2018-03-29T03:07:51.164Z,90.50
2018-03-29T03:10:20.069Z,90.40
2018-03-29T03:12:48.204Z,90.40
2018-03-29T03:15:16.322Z,90.80
2018-03-29T03:17:44.463Z,91.00
2018-03-29T03:20:12.588Z,91.40
2018-03-29T03:22:40.745Z,91.60
2018-03-29T03:25:08.883Z,92.50
2018-03-29T03:27:37.779Z,93.50
2018-03-29T03:30:06.705Z,93.90
2018-03-29T03:32:34.843Z,93.90
2018-03-29T03:35:03.857Z,94.00
2018-03-29T03:37:32.007Z,94.00
2018-03-29T03:40:00.915Z,94.30
2018-03-29T03:42:29.033Z,94.30
2018-03-29T03:44:57.293Z,94.40
2018-03-29T03:47:25.424Z,93.80
2018-03-29T03:49:53.542Z,94.20
2018-03-29T03:52:21.712Z,93.70
2018-03-29T03:54:49.843Z,93.90
2018-03-29T03:57:17.991Z,93.70
2018-03-29T03:59:46.141Z,93.40
2018-03-29T04:02:14.265Z,93.30
2018-03-29T04:04:42.419Z,93.00
2018-03-29T04:07:11.311Z,92.40
2018-03-29T04:09:39.444Z,92.40
2018-03-29T04:12:07.588Z,92.10
2018-03-29T04:14:35.729Z,91.80
2018-03-29T04:17:04.635Z,91.40
2018-03-29T04:19:32.816Z,91.40
2018-03-29T04:22:01.712Z,90.10
2018-03-29T04:24:29.843Z,90.10
2018-03-29T04:26:58.747Z,89.10
2018-03-29T04:29:27.631Z,89.70
2018-03-29T04:31:56.544Z,90.10
2018-03-29T04:34:24.668Z,90.10
2018-03-29T04:36:52.795Z,90.00
2018-03-29T04:39:20.970Z,89.30
2018-03-29T04:41:49.096Z,89.20
2018-03-29T04:44:17.251Z,89.50
2018-03-29T04:46:45.373Z,89.20
2018-03-29T04:49:13.561Z,88.10
2018-03-29T04:51:41.671Z,87.10
2018-03-29T04:54:09.978Z,86.70
2018-03-29T04:56:38.867Z,87.00
2018-03-29T04:59:07.764Z,86.70
2018-03-29T05:01:35.910Z,86.80
2018-03-29T05:04:04.037Z,86.40
2018-03-29T05:06:32.288Z,85.60
2018-03-29T05:09:00.423Z,86.90
2018-03-29T05:11:28.559Z,87.40
2018-03-29T05:13:56.708Z,87.70
2018-03-29T05:16:24.851Z,87.50
2018-03-29T05:18:53.787Z,84.60
2018-03-29T05:21:22.742Z,84.70
2018-03-29T05:23:51.694Z,83.00
2018-03-29T05:26:19.903Z,83.00
2018-03-29T05:28:48.834Z,82.70
2018-03-29T05:31:16.987Z,82.40
2018-03-29T05:33:45.163Z,81.70
2018-03-29T05:36:13.292Z,81.70
2018-03-29T05:38:41.412Z,80.00
2018-03-29T05:41:09.570Z,79.90
2018-03-29T05:43:37.711Z,79.40
2018-03-29T05:46:05.852Z,80.20
2018-03-29T05:48:33.983Z,79.90
2018-03-29T05:51:02.899Z,79.80
2018-03-29T05:53:31.019Z,79.80
2018-03-29T05:55:59.140Z,79.50
2018-03-29T05:58:27.282Z,79.40
2018-03-29T06:00:56.195Z,79.30
2018-03-29T06:03:24.307Z,79.30
2018-03-29T06:05:52.456Z,78.90
2018-03-29T06:08:20.612Z,78.80
2018-03-29T06:10:48.739Z,78.90
2018-03-29T06:13:17.636Z,78.30
2018-03-29T06:15:46.551Z,77.50
2018-03-29T06:18:14.708Z,77.40
2018-03-29T06:20:43.590Z,77.40
2018-03-29T06:23:11.819Z,77.20
2018-03-29T06:25:39.879Z,77.00
2018-03-29T06:28:08.000Z,77.00
2018-03-29T06:30:36.157Z,77.00
2018-03-29T06:33:04.281Z,76.60
2018-03-29T06:35:33.556Z,76.40
2018-03-29T06:38:02.466Z,75.00
2018-03-29T06:40:30.595Z,75.00
2018-03-29T06:42:59.640Z,73.80
2018-03-29T06:45:27.752Z,73.80
2018-03-29T06:47:55.899Z,74.00
2018-03-29T06:50:24.147Z,74.00
2018-03-29T06:52:53.024Z,74.90
2018-03-29T06:55:22.814Z,73.70
2018-03-29T06:57:50.980Z,73.80
2018-03-29T07:00:19.095Z,75.30
2018-03-29T07:02:47.255Z,75.00
2018-03-29T07:05:16.363Z,73.70
2018-03-29T07:07:44.539Z,73.90
2018-03-29T07:10:12.671Z,72.50
2018-03-29T07:12:40.807Z,73.30
2018-03-29T07:15:09.009Z,73.20
2018-03-29T07:17:37.132Z,72.00
2018-03-29T07:20:05.341Z,71.10
2018-03-29T07:22:33.500Z,70.10
2018-03-29T07:25:01.616Z,70.00
2018-03-29T07:27:30.534Z,70.50
2018-03-29T07:29:58.664Z,69.90
2018-03-29T07:32:26.777Z,69.20
2018-03-29T07:34:54.913Z,69.10
2018-03-29T07:37:23.819Z,69.30
2018-03-29T07:39:52.699Z,68.60
2018-03-29T07:42:21.611Z,70.10
2018-03-29T07:44:50.494Z,67.70
2018-03-29T07:47:19.394Z,67.90
2018-03-29T07:49:47.579Z,67.90
2018-03-29T07:52:15.695Z,67.50
2018-03-29T07:54:43.928Z,68.00
2018-03-29T07:57:12.105Z,67.60
2018-03-29T07:59:41.055Z,67.80
2018-03-29T08:02:09.952Z,64.00
2018-03-29T08:04:38.867Z,65.00
2018-03-29T08:07:07.074Z,64.90
2018-03-29T08:09:35.436Z,66.10
2018-03-29T08:12:03.592Z,64.70
2018-03-29T08:14:31.736Z,65.00
2018-03-29T08:17:00.639Z,63.60
2018-03-29T08:19:29.145Z,63.70
2018-03-29T08:21:57.402Z,63.40
2018-03-29T08:24:26.443Z,63.30
2018-03-29T08:26:54.631Z,64.30
2018-03-29T08:29:22.773Z,63.40
2018-03-29T08:31:51.595Z,64.40
2018-03-29T08:34:19.723Z,63.40
2018-03-29T08:36:47.871Z,63.40
2018-03-29T08:39:16.078Z,63.40
2018-03-29T08:41:45.814Z,63.70
2018-03-29T08:44:14.101Z,61.00
2018-03-29T08:46:42.296Z,62.30
2018-03-29T08:49:10.419Z,62.50
2018-03-29T08:51:38.559Z,62.10
2018-03-29T08:54:06.671Z,61.50
2018-03-29T08:56:34.787Z,61.60
2018-03-29T09:44:55.609Z,61.40
2018-03-29T09:47:23.728Z,61.30
2018-03-29T09:49:51.880Z,64.60
2018-03-29T09:52:20.110Z,63.00
2018-03-29T09:54:48.237Z,67.40
2018-03-29T09:57:16.391Z,70.80
2018-03-29T09:59:44.525Z,70.20
2018-03-29T10:02:18.164Z,69.00
2018-03-29T10:04:51.997Z,69.10
2018-03-29T10:07:24.800Z,65.80
2018-03-29T10:09:53.001Z,65.40
2018-03-29T10:12:21.192Z,61.80
2018-03-29T10:14:49.356Z,64.00
2018-03-29T10:17:17.496Z,58.00
2018-03-29T10:19:45.674Z,55.80
2018-03-29T10:22:13.819Z,50.10
2018-03-29T10:24:42.737Z,50.80
2018-03-29T10:27:11.010Z,50.80
2018-03-29T10:29:40.106Z,49.60
2018-03-29T10:32:08.392Z,50.90
2018-03-29T10:34:36.647Z,51.50
2018-03-29T10:37:04.833Z,49.20
2018-03-29T10:39:32.947Z,48.40
2018-03-29T10:42:01.095Z,48.70
2018-03-29T10:44:29.323Z,47.60
2018-03-29T10:46:58.219Z,46.20
2018-03-29T10:49:26.367Z,46.20
2018-03-29T10:51:54.500Z,45.80
2018-03-29T10:54:22.632Z,46.20
2018-03-29T10:56:50.779Z,43.80
2018-03-29T10:59:18.904Z,45.10
2018-03-29T11:01:47.089Z,42.20
2018-03-29T11:04:15.362Z,40.90
2018-03-29T11:06:43.503Z,40.00
2018-03-29T11:09:11.617Z,40.90
2018-03-29T11:11:39.852Z,41.70
2018-03-29T11:14:07.992Z,41.70
2018-03-29T11:16:36.102Z,40.20
2018-03-29T11:19:04.219Z,41.20
2018-03-29T11:21:32.371Z,41.70
2018-03-29T11:24:00.490Z,42.00
2018-03-29T11:26:29.394Z,40.00
2018-03-29T11:28:58.356Z,40.00
2018-03-29T11:31:26.524Z,40.00
2018-03-29T11:33:54.666Z,39.60
2018-03-29T11:36:22.828Z,40.20
2018-03-29T11:38:50.991Z,41.90
2018-03-29T11:41:19.158Z,42.00
2018-03-29T11:43:47.297Z,41.50
2018-03-29T11:46:16.544Z,41.40
2018-03-29T11:48:44.695Z,41.40
2018-03-29T11:51:12.868Z,41.10
2018-03-29T11:53:41.412Z,40.60
2018-03-29T11:56:09.518Z,40.90
2018-03-29T11:58:38.887Z,41.30
2018-03-29T12:01:07.364Z,39.40
2018-03-29T12:03:35.549Z,41.20
2018-03-29T12:06:04.493Z,43.80
2018-03-29T12:08:36.884Z,42.30
2018-03-29T12:11:05.033Z,42.00
2018-03-29T12:13:46.619Z,41.60
2018-03-29T12:16:14.768Z,41.20
2018-03-29T12:18:42.907Z,41.50
2018-03-29T12:21:11.264Z,39.80
2018-03-29T12:23:39.410Z,39.60
2018-03-29T12:26:07.577Z,39.60
2018-03-29T12:28:35.762Z,39.80
2018-03-29T12:31:03.916Z,38.10
2018-03-29T12:33:32.061Z,36.80
2018-03-29T12:36:01.820Z,36.20
2018-03-29T12:38:30.025Z,37.10
2018-03-29T12:40:58.975Z,38.50
2018-03-29T12:43:27.110Z,37.20
2018-03-29T12:45:56.033Z,39.00
2018-03-29T12:48:24.710Z,38.00
2018-03-29T12:50:52.860Z,37.80
2018-03-29T12:53:23.487Z,37.50
2018-03-29T12:55:53.857Z,37.40
2018-03-29T12:58:22.045Z,37.30
2018-03-29T13:00:50.171Z,37.40
2018-03-29T13:03:20.602Z,37.50
2018-03-29T13:05:48.774Z,37.40
2018-03-29T13:08:18.244Z,36.60
2018-03-29T13:10:46.392Z,36.50
2018-03-29T13:13:14.850Z,35.90
2018-03-29T13:15:43.971Z,34.70
2018-03-29T13:18:12.128Z,35.90
2018-03-29T13:20:40.264Z,36.70
2018-03-29T13:23:09.205Z,38.10
2018-03-29T13:25:37.347Z,38.00
2018-03-29T13:28:05.528Z,38.40
2018-03-29T13:30:33.711Z,38.20
2018-03-29T13:33:01.839Z,38.90
2018-03-29T13:35:30.752Z,39.40
2018-03-29T13:37:58.895Z,40.60
2018-03-29T13:40:27.817Z,39.60
2018-03-29T13:42:55.968Z,39.50
2018-03-29T13:45:24.852Z,39.60
2018-03-29T13:47:53.745Z,39.70
2018-03-29T13:50:24.524Z,39.70
2018-03-29T13:52:53.155Z,39.70
2018-03-29T13:55:22.060Z,39.60
2018-03-29T13:57:50.216Z,39.40
2018-03-29T14:00:19.563Z,39.20
2018-03-29T14:02:47.727Z,39.20
2018-03-29T14:05:15.872Z,39.70
2018-03-29T14:07:44.004Z,39.50
2018-03-29T14:10:12.149Z,41.10
2018-03-29T14:12:40.296Z,42.50
2018-03-29T14:15:08.436Z,48.60
2018-03-29T14:17:36.575Z,55.50
2018-03-29T14:20:04.700Z,55.30
2018-03-29T14:22:33.614Z,52.00
2018-03-29T14:25:01.803Z,52.00
2018-03-29T14:27:29.948Z,49.20
2018-03-29T14:29:58.934Z,47.70
2018-03-29T14:32:27.038Z,47.60
2018-03-29T14:34:55.182Z,48.50
2018-03-29T14:37:23.359Z,46.30
2018-03-29T14:39:51.647Z,45.00
2018-03-29T14:42:19.777Z,42.60
2018-03-29T14:44:48.700Z,40.00
2018-03-29T14:47:16.832Z,40.00
2018-03-29T14:49:45.061Z,37.10
2018-03-29T14:52:15.328Z,34.90
2018-03-29T14:54:44.281Z,32.40
2018-03-29T14:57:12.407Z,32.40
2018-03-29T14:59:40.550Z,31.60
2018-03-29T15:02:08.712Z,30.80
2018-03-29T15:04:36.846Z,30.10
2018-03-29T15:07:05.028Z,28.60
2018-03-29T15:09:33.175Z,29.50
2018-03-29T15:12:02.244Z,32.50
2018-03-29T15:14:30.391Z,32.40
2018-03-29T15:16:58.523Z,34.60
2018-03-29T15:19:27.412Z,38.40
2018-03-29T15:21:55.616Z,38.40
2018-03-29T15:24:23.756Z,38.90
2018-03-29T15:26:52.014Z,39.50
2018-03-29T15:29:21.055Z,45.50
2018-03-29T15:31:49.199Z,45.70
2018-03-29T15:34:18.092Z,49.30
2018-03-29T15:36:46.296Z,49.20
2018-03-29T15:39:14.427Z,46.30
2018-03-29T15:41:43.320Z,45.70
2018-03-29T15:44:12.842Z,45.60
2018-03-29T15:46:40.996Z,45.60
2018-03-29T15:49:09.932Z,39.80
2018-03-29T15:51:38.081Z,39.80
2018-03-29T15:54:06.254Z,39.30
2018-03-29T15:56:34.806Z,39.00
2018-03-29T15:59:03.731Z,38.60
2018-03-29T16:01:31.870Z,38.60
2018-03-29T16:04:00.768Z,39.50
2018-03-29T16:06:28.939Z,39.50
2018-03-29T16:08:57.101Z,38.90
2018-03-29T16:11:27.520Z,37.90
2018-03-29T16:13:56.460Z,38.60
2018-03-29T16:16:24.595Z,37.60
2018-03-29T16:18:53.511Z,35.00
2018-03-29T16:21:21.660Z,35.00
2018-03-29T16:24:00.558Z,33.70
2018-03-29T16:26:28.720Z,33.60
2018-03-29T16:28:57.953Z,31.80
2018-03-29T16:31:26.882Z,33.10
2018-03-29T16:33:55.028Z,32.00
2018-03-29T16:36:23.507Z,32.70
2018-03-29T16:38:52.436Z,35.50
2018-03-29T16:41:20.921Z,35.50
2018-03-29T16:43:49.999Z,37.20
2018-03-29T16:46:18.178Z,37.20
2018-03-29T16:48:46.370Z,37.70
2018-03-29T16:51:15.063Z,38.10
2018-03-29T16:53:43.819Z,37.20
2018-03-29T16:56:11.998Z,38.40
2018-03-29T16:58:40.340Z,38.40
2018-03-29T17:01:08.487Z,38.10
2018-03-29T17:03:36.628Z,38.90
2018-03-29T17:06:04.768Z,38.60
2018-03-29T17:08:32.949Z,39.00
2018-03-29T17:11:01.090Z,39.40
2018-03-29T17:13:30.040Z,39.30
2018-03-29T17:15:58.179Z,39.30
2018-03-29T17:18:26.410Z,39.40
2018-03-29T17:20:55.387Z,41.00
2018-03-29T17:23:23.526Z,39.70
2018-03-29T17:25:51.718Z,40.10
2018-03-29T17:28:19.907Z,40.30
2018-03-29T17:30:48.037Z,40.70
2018-03-29T17:33:16.594Z,41.00
2018-03-29T17:35:44.867Z,41.10
2018-03-29T17:38:13.790Z,43.50
2018-03-29T17:40:41.931Z,43.30
2018-03-29T17:43:10.856Z,47.80
2018-03-29T17:45:38.992Z,47.90
2018-03-29T17:48:07.918Z,64.30
2018-03-29T17:50:36.163Z,64.30
2018-03-29T17:53:05.114Z,67.10
2018-03-29T17:55:33.244Z,66.50
2018-03-29T17:58:01.394Z,70.30
2018-03-29T18:00:30.323Z,73.30
2018-03-29T18:02:58.447Z,73.60
2018-03-29T18:05:27.603Z,75.50
2018-03-29T18:07:55.732Z,74.40
2018-03-29T18:10:23.891Z,76.00
2018-03-29T18:12:52.848Z,75.20
2018-03-29T18:15:20.953Z,75.30
2018-03-29T18:17:49.880Z,75.60
2018-03-29T18:20:18.014Z,75.60
2018-03-29T18:22:46.156Z,75.30
2018-03-29T18:25:14.289Z,75.60
2018-03-29T18:27:42.460Z,75.40
2018-03-29T18:30:10.600Z,72.80
2018-03-29T18:32:38.749Z,73.20
2018-03-29T18:35:06.915Z,72.50
2018-03-29T18:37:35.033Z,70.60
2018-03-29T18:40:03.995Z,71.20
2018-03-29T18:42:32.160Z,71.20
2018-03-29T18:45:00.295Z,71.90
2018-03-29T18:47:28.483Z,72.20
2018-03-29T18:49:56.677Z,71.60
2018-03-29T18:52:24.812Z,70.10
2018-03-29T18:54:53.652Z,70.90
2018-03-29T18:57:21.805Z,70.80
2018-03-29T18:59:49.965Z,71.30
2018-03-29T19:02:18.100Z,71.70
2018-03-29T19:04:46.260Z,72.60
2018-03-29T19:07:15.184Z,72.30
2018-03-29T19:09:43.333Z,72.30
2018-03-29T19:12:11.493Z,72.50
2018-03-29T19:14:39.643Z,73.00
2018-03-29T19:17:07.888Z,73.10
2018-03-29T19:19:36.042Z,72.90
2018-03-29T19:22:04.186Z,73.10
2018-03-29T19:24:33.099Z,71.80
2018-03-29T19:27:01.273Z,71.90
2018-03-29T19:29:29.832Z,71.80
2018-03-29T19:31:58.749Z,71.00
2018-03-29T19:34:26.901Z,72.10
2018-03-29T19:36:55.063Z,70.50
2018-03-29T19:39:23.988Z,69.90
2018-03-29T19:41:53.093Z,69.90
2018-03-29T19:44:21.268Z,70.30
2018-03-29T19:46:49.404Z,70.10
2018-03-29T19:49:18.323Z,71.30
2018-03-29T19:51:46.496Z,71.20
2018-03-29T19:54:14.646Z,71.10
2018-03-29T19:56:42.793Z,73.10
2018-03-29T19:59:10.916Z,73.30
2018-03-29T20:01:39.089Z,72.40
2018-03-29T20:04:07.220Z,71.80
2018-03-29T20:06:36.121Z,72.70
2018-03-29T20:09:05.048Z,72.60
2018-03-29T20:11:33.195Z,72.60
2018-03-29T20:14:01.344Z,72.60
2018-03-29T20:16:30.238Z,72.60
2018-03-29T20:18:59.144Z,72.70
2018-03-29T20:21:27.343Z,72.70
2018-03-29T20:23:55.523Z,72.90
2018-03-29T20:26:23.663Z,73.00
2018-03-29T20:28:51.836Z,73.00
2018-03-29T20:31:19.996Z,72.80
2018-03-29T20:33:48.927Z,74.40
2018-03-29T20:36:17.053Z,74.40
2018-03-29T20:38:45.956Z,75.20
2018-03-29T20:41:14.880Z,75.20
2018-03-29T20:43:43.273Z,75.30
2018-03-29T20:46:11.413Z,75.10
2018-03-29T20:48:39.560Z,75.90
2018-03-29T20:51:08.452Z,75.90
2018-03-29T20:53:37.366Z,75.60
2018-03-29T20:56:05.494Z,75.70
2018-03-29T20:58:33.639Z,75.30
2018-03-29T21:01:01.789Z,75.60
2018-03-29T21:03:29.915Z,75.30
2018-03-29T21:05:58.854Z,75.30
2018-03-29T21:08:27.011Z,75.30
2018-03-29T21:10:55.227Z,75.00
2018-03-29T21:13:24.048Z,73.60
2018-03-29T21:15:52.965Z,72.20
2018-03-29T21:18:21.127Z,72.20
2018-03-29T21:20:50.037Z,71.10
2018-03-29T21:23:18.186Z,71.50
2018-03-29T21:25:47.100Z,70.70
2018-03-29T21:28:15.274Z,70.80
2018-03-29T21:30:43.423Z,70.40
2018-03-29T21:33:11.622Z,70.80
2018-03-29T21:35:39.763Z,70.90
2018-03-29T21:38:08.660Z,70.50
2018-03-29T21:40:37.579Z,70.40
2018-03-29T21:43:05.731Z,70.30
2018-03-29T21:45:34.643Z,70.60
2018-03-29T21:48:02.778Z,70.60
2018-03-29T21:50:31.708Z,72.90
2018-03-29T21:52:59.836Z,73.20
2018-03-29T21:55:28.768Z,75.20
2018-03-29T21:57:56.892Z,75.10
2018-03-29T22:00:25.808Z,76.00
2018-03-29T22:02:53.984Z,75.20
2018-03-29T22:05:22.115Z,75.70
2018-03-29T22:07:50.257Z,76.50
2018-03-29T22:10:18.395Z,77.00
2018-03-29T22:12:46.574Z,77.30
2018-03-29T22:15:14.750Z,77.20
2018-03-29T22:17:43.241Z,77.00
2018-03-29T22:20:11.417Z,77.70
2018-03-29T22:22:39.611Z,77.40
2018-03-29T22:25:07.755Z,77.20
2018-03-29T22:27:36.625Z,77.10
2018-03-29T22:30:04.784Z,77.30
2018-03-29T22:32:33.704Z,78.10
2018-03-29T22:35:01.865Z,78.10
2018-03-29T22:37:30.183Z,78.20
2018-03-29T22:39:58.338Z,78.70
2018-03-29T22:42:27.163Z,78.40
2018-03-29T22:44:55.304Z,78.50
2018-03-29T22:47:23.435Z,79.40
2018-03-29T22:49:52.340Z,80.20
2018-03-29T22:52:20.558Z,80.10
2018-03-29T22:54:48.714Z,81.20
2018-03-29T22:57:16.858Z,82.00
2018-03-29T22:59:46.008Z,82.30
2018-03-29T23:02:14.168Z,83.50
2018-03-29T23:04:42.325Z,83.90
2018-03-29T23:07:10.632Z,83.90
2018-03-29T23:09:38.773Z,83.90
2018-03-29T23:12:06.947Z,83.90
2018-03-29T23:14:35.075Z,83.80
2018-03-29T23:17:03.246Z,83.80
2018-03-29T23:19:32.134Z,83.90
2018-03-29T23:22:01.048Z,83.80
2018-03-29T23:24:29.215Z,83.80
2018-03-29T23:26:57.364Z,83.80
2018-03-29T23:29:26.255Z,83.80
2018-03-29T23:32:01.963Z,83.80
2018-03-29T23:34:30.554Z,83.80
2018-03-29T23:36:59.534Z,83.80
2018-03-29T23:39:27.674Z,83.80
2018-03-29T23:41:55.830Z,83.30
2018-03-29T23:44:24.732Z,81.00
2018-03-29T23:46:52.852Z,80.90
2018-03-29T23:49:21.100Z,80.60
2018-03-29T23:51:49.228Z,80.00
2018-03-29T23:54:18.144Z,80.20
2018-03-29T23:56:46.283Z,80.10
2018-03-29T23:59:14.422Z,80.20
